sensor_id;sensor_type;location;lat;lon;timestamp;P1;durP1;ratioP1;P2;durP2;ratioP2
8895;SDS011;4484;48.928;10.066;2022-08-21T00:00:28;1.73;;;1.63;;
8895;SDS011;4484;48.928;10.066;2022-08-21T00:03:02;1.80;;;1.67;;
8895;SDS011;4484;48.928;10.066;2022-08-21T00:05:35;2.57;;;2.13;;
8895;SDS011;4484;48.928;10.066;2022-08-21T00:08:05;2.53;;;1.77;;
8895;SDS011;4484;48.928;10.066;2022-08-21T00:10:32;2.00;;;1.43;;
8895;SDS011;4484;48.928;10.066;2022-08-21T00:13:04;1.70;;;1.60;;
8895;SDS011;4484;48.928;10.066;2022-08-21T00:15:33;2.00;;;1.57;;
8895;SDS011;4484;48.928;10.066;2022-08-21T00:18:01;2.00;;;1.80;;
8895;SDS011;4484;48.928;10.066;2022-08-21T00:20:29;1.80;;;1.70;;
8895;SDS011;4484;48.928;10.066;2022-08-21T00:22:56;2.00;;;1.70;;
8895;SDS011;4484;48.928;10.066;2022-08-21T00:25:23;3.00;;;1.90;;
8895;SDS011;4484;48.928;10.066;2022-08-21T00:27:51;2.50;;;1.97;;
8895;SDS011;4484;48.928;10.066;2022-08-21T00:30:19;4.57;;;1.93;;
8895;SDS011;4484;48.928;10.066;2022-08-21T00:32:49;2.60;;;1.90;;
8895;SDS011;4484;48.928;10.066;2022-08-21T00:35:24;2.07;;;1.80;;
8895;SDS011;4484;48.928;10.066;2022-08-21T00:37:53;2.00;;;1.80;;
8895;SDS011;4484;48.928;10.066;2022-08-21T00:40:23;2.10;;;1.90;;
8895;SDS011;4484;48.928;10.066;2022-08-21T00:42:56;2.00;;;1.77;;
8895;SDS011;4484;48.928;10.066;2022-08-21T00:45:23;1.63;;;1.53;;
8895;SDS011;4484;48.928;10.066;2022-08-21T00:47:51;1.93;;;1.80;;
8895;SDS011;4484;48.928;10.066;2022-08-21T00:50:18;2.30;;;1.70;;
8895;SDS011;4484;48.928;10.066;2022-08-21T00:52:47;1.60;;;1.50;;
8895;SDS011;4484;48.928;10.066;2022-08-21T00:55:17;1.63;;;1.37;;
8895;SDS011;4484;48.928;10.066;2022-08-21T00:57:51;1.20;;;1.10;;
8895;SDS011;4484;48.928;10.066;2022-08-21T01:00:24;1.20;;;1.10;;
8895;SDS011;4484;48.928;10.066;2022-08-21T01:02:58;1.50;;;1.30;;
8895;SDS011;4484;48.928;10.066;2022-08-21T01:05:32;1.20;;;1.10;;
8895;SDS011;4484;48.928;10.066;2022-08-21T01:08:06;1.40;;;1.10;;
8895;SDS011;4484;48.928;10.066;2022-08-21T01:10:35;1.77;;;1.50;;
8895;SDS011;4484;48.928;10.066;2022-08-21T01:13:04;1.40;;;1.30;;
8895;SDS011;4484;48.928;10.066;2022-08-21T01:15:35;1.13;;;1.03;;
8895;SDS011;4484;48.928;10.066;2022-08-21T01:18:06;1.17;;;1.07;;
8895;SDS011;4484;48.928;10.066;2022-08-21T01:20:35;1.10;;;1.00;;
8895;SDS011;4484;48.928;10.066;2022-08-21T01:23:04;0.80;;;0.80;;
8895;SDS011;4484;48.928;10.066;2022-08-21T01:25:32;1.20;;;1.10;;
8895;SDS011;4484;48.928;10.066;2022-08-21T01:28:02;0.90;;;0.90;;
8895;SDS011;4484;48.928;10.066;2022-08-21T01:30:34;32.70;;;11.40;;
8895;SDS011;4484;48.928;10.066;2022-08-21T01:33:03;12.47;;;4.93;;
8895;SDS011;4484;48.928;10.066;2022-08-21T01:35:31;12.40;;;4.80;;
8895;SDS011;4484;48.928;10.066;2022-08-21T01:37:57;9.30;;;3.97;;
8895;SDS011;4484;48.928;10.066;2022-08-21T01:40:25;11.83;;;4.20;;
8895;SDS011;4484;48.928;10.066;2022-08-21T01:42:53;13.20;;;5.00;;
8895;SDS011;4484;48.928;10.066;2022-08-21T01:45:20;9.50;;;4.10;;
8895;SDS011;4484;48.928;10.066;2022-08-21T01:47:47;7.13;;;3.27;;
8895;SDS011;4484;48.928;10.066;2022-08-21T01:50:15;6.77;;;3.37;;
8895;SDS011;4484;48.928;10.066;2022-08-21T01:52:45;7.27;;;3.50;;
8895;SDS011;4484;48.928;10.066;2022-08-21T01:55:12;4.43;;;2.73;;
8895;SDS011;4484;48.928;10.066;2022-08-21T01:57:40;4.57;;;2.50;;
8895;SDS011;4484;48.928;10.066;2022-08-21T02:00:08;5.23;;;3.13;;
8895;SDS011;4484;48.928;10.066;2022-08-21T02:02:38;4.17;;;2.73;;
8895;SDS011;4484;48.928;10.066;2022-08-21T02:05:06;5.03;;;2.73;;
8895;SDS011;4484;48.928;10.066;2022-08-21T02:07:40;3.50;;;2.60;;
8895;SDS011;4484;48.928;10.066;2022-08-21T02:10:16;2.60;;;2.27;;
8895;SDS011;4484;48.928;10.066;2022-08-21T02:12:47;3.03;;;2.37;;
8895;SDS011;4484;48.928;10.066;2022-08-21T02:15:14;3.33;;;1.90;;
8895;SDS011;4484;48.928;10.066;2022-08-21T02:17:47;2.57;;;2.10;;
8895;SDS011;4484;48.928;10.066;2022-08-21T02:20:22;2.53;;;2.07;;
8895;SDS011;4484;48.928;10.066;2022-08-21T02:22:52;2.10;;;2.00;;
8895;SDS011;4484;48.928;10.066;2022-08-21T02:25:20;1.90;;;1.70;;
8895;SDS011;4484;48.928;10.066;2022-08-21T02:27:48;2.20;;;2.00;;
8895;SDS011;4484;48.928;10.066;2022-08-21T02:30:19;1.90;;;1.80;;
8895;SDS011;4484;48.928;10.066;2022-08-21T02:32:49;3.53;;;1.90;;
8895;SDS011;4484;48.928;10.066;2022-08-21T02:35:16;2.07;;;1.87;;
8895;SDS011;4484;48.928;10.066;2022-08-21T02:37:43;1.60;;;1.50;;
8895;SDS011;4484;48.928;10.066;2022-08-21T02:40:16;1.60;;;1.50;;
8895;SDS011;4484;48.928;10.066;2022-08-21T02:42:46;1.90;;;1.70;;
8895;SDS011;4484;48.928;10.066;2022-08-21T02:45:13;1.60;;;1.50;;
8895;SDS011;4484;48.928;10.066;2022-08-21T02:47:49;1.40;;;1.30;;
8895;SDS011;4484;48.928;10.066;2022-08-21T02:50:23;1.23;;;1.13;;
8895;SDS011;4484;48.928;10.066;2022-08-21T02:52:52;1.50;;;1.40;;
8895;SDS011;4484;48.928;10.066;2022-08-21T02:55:22;1.23;;;1.13;;
8895;SDS011;4484;48.928;10.066;2022-08-21T02:57:52;1.47;;;1.37;;
8895;SDS011;4484;48.928;10.066;2022-08-21T03:00:22;1.50;;;1.40;;
8895;SDS011;4484;48.928;10.066;2022-08-21T03:02:51;1.80;;;1.23;;
8895;SDS011;4484;48.928;10.066;2022-08-21T03:05:19;1.37;;;1.27;;
8895;SDS011;4484;48.928;10.066;2022-08-21T03:07:46;1.50;;;1.37;;
8895;SDS011;4484;48.928;10.066;2022-08-21T03:10:14;1.37;;;1.23;;
8895;SDS011;4484;48.928;10.066;2022-08-21T03:12:41;1.53;;;1.40;;
8895;SDS011;4484;48.928;10.066;2022-08-21T03:15:10;1.40;;;1.30;;
8895;SDS011;4484;48.928;10.066;2022-08-21T03:17:38;1.30;;;1.20;;
8895;SDS011;4484;48.928;10.066;2022-08-21T03:20:06;1.10;;;1.10;;
8895;SDS011;4484;48.928;10.066;2022-08-21T03:22:34;0.90;;;0.90;;
8895;SDS011;4484;48.928;10.066;2022-08-21T03:25:02;1.27;;;1.17;;
8895;SDS011;4484;48.928;10.066;2022-08-21T03:27:32;1.30;;;1.10;;
8895;SDS011;4484;48.928;10.066;2022-08-21T03:30:02;1.27;;;1.17;;
8895;SDS011;4484;48.928;10.066;2022-08-21T03:32:31;1.50;;;1.20;;
8895;SDS011;4484;48.928;10.066;2022-08-21T03:35:00;1.03;;;0.93;;
8895;SDS011;4484;48.928;10.066;2022-08-21T03:37:28;1.43;;;1.30;;
8895;SDS011;4484;48.928;10.066;2022-08-21T03:39:55;1.43;;;1.30;;
8895;SDS011;4484;48.928;10.066;2022-08-21T03:42:22;2.93;;;1.50;;
8895;SDS011;4484;48.928;10.066;2022-08-21T03:44:49;1.67;;;1.57;;
8895;SDS011;4484;48.928;10.066;2022-08-21T03:47:16;1.60;;;1.50;;
8895;SDS011;4484;48.928;10.066;2022-08-21T03:49:44;1.30;;;1.20;;
8895;SDS011;4484;48.928;10.066;2022-08-21T03:52:12;1.10;;;1.00;;
8895;SDS011;4484;48.928;10.066;2022-08-21T03:54:38;1.20;;;1.10;;
8895;SDS011;4484;48.928;10.066;2022-08-21T03:57:07;1.07;;;1.07;;
8895;SDS011;4484;48.928;10.066;2022-08-21T03:59:35;0.83;;;0.83;;
8895;SDS011;4484;48.928;10.066;2022-08-21T04:02:03;1.33;;;1.23;;
8895;SDS011;4484;48.928;10.066;2022-08-21T04:04:32;1.00;;;1.00;;
8895;SDS011;4484;48.928;10.066;2022-08-21T04:06:59;1.20;;;1.10;;
8895;SDS011;4484;48.928;10.066;2022-08-21T04:09:26;1.80;;;1.40;;
8895;SDS011;4484;48.928;10.066;2022-08-21T04:11:53;1.70;;;1.10;;
8895;SDS011;4484;48.928;10.066;2022-08-21T04:14:20;2.03;;;1.30;;
8895;SDS011;4484;48.928;10.066;2022-08-21T04:16:48;1.50;;;1.40;;
8895;SDS011;4484;48.928;10.066;2022-08-21T04:19:15;1.50;;;1.40;;
8895;SDS011;4484;48.928;10.066;2022-08-21T04:21:42;2.07;;;1.67;;
8895;SDS011;4484;48.928;10.066;2022-08-21T04:24:10;1.97;;;1.67;;
8895;SDS011;4484;48.928;10.066;2022-08-21T04:26:37;1.60;;;1.50;;
8895;SDS011;4484;48.928;10.066;2022-08-21T04:29:05;1.80;;;1.70;;
8895;SDS011;4484;48.928;10.066;2022-08-21T04:31:35;1.70;;;1.60;;
8895;SDS011;4484;48.928;10.066;2022-08-21T04:34:03;2.47;;;1.87;;
8895;SDS011;4484;48.928;10.066;2022-08-21T04:36:31;1.50;;;1.33;;
8895;SDS011;4484;48.928;10.066;2022-08-21T04:38:59;2.43;;;1.83;;
8895;SDS011;4484;48.928;10.066;2022-08-21T04:41:28;2.77;;;2.07;;
8895;SDS011;4484;48.928;10.066;2022-08-21T04:43:55;4.70;;;2.40;;
8895;SDS011;4484;48.928;10.066;2022-08-21T04:46:22;6.43;;;3.27;;
8895;SDS011;4484;48.928;10.066;2022-08-21T04:48:49;7.17;;;3.53;;
8895;SDS011;4484;48.928;10.066;2022-08-21T04:51:22;5.93;;;3.13;;
8895;SDS011;4484;48.928;10.066;2022-08-21T04:54:16;5.47;;;2.87;;
8895;SDS011;4484;48.928;10.066;2022-08-21T04:56:50;3.77;;;3.03;;
8895;SDS011;4484;48.928;10.066;2022-08-21T04:59:36;4.33;;;2.63;;
8895;SDS011;4484;48.928;10.066;2022-08-21T05:02:05;5.90;;;2.97;;
8895;SDS011;4484;48.928;10.066;2022-08-21T05:04:33;4.73;;;3.20;;
8895;SDS011;4484;48.928;10.066;2022-08-21T05:07:04;9.70;;;3.23;;
8895;SDS011;4484;48.928;10.066;2022-08-21T05:09:33;8.03;;;3.87;;
8895;SDS011;4484;48.928;10.066;2022-08-21T05:12:01;5.60;;;3.60;;
8895;SDS011;4484;48.928;10.066;2022-08-21T05:14:28;4.73;;;3.30;;
8895;SDS011;4484;48.928;10.066;2022-08-21T05:16:55;3.30;;;3.00;;
8895;SDS011;4484;48.928;10.066;2022-08-21T05:19:23;5.07;;;4.27;;
8895;SDS011;4484;48.928;10.066;2022-08-21T05:21:51;10.00;;;4.30;;
8895;SDS011;4484;48.928;10.066;2022-08-21T05:24:18;7.40;;;4.30;;
8895;SDS011;4484;48.928;10.066;2022-08-21T05:26:45;8.40;;;3.90;;
8895;SDS011;4484;48.928;10.066;2022-08-21T05:29:13;4.47;;;3.50;;
8895;SDS011;4484;48.928;10.066;2022-08-21T05:31:42;6.33;;;3.50;;
8895;SDS011;4484;48.928;10.066;2022-08-21T05:34:09;6.30;;;3.77;;
8895;SDS011;4484;48.928;10.066;2022-08-21T05:36:41;6.90;;;3.37;;
8895;SDS011;4484;48.928;10.066;2022-08-21T05:39:08;4.50;;;3.50;;
8895;SDS011;4484;48.928;10.066;2022-08-21T05:41:35;6.17;;;3.63;;
8895;SDS011;4484;48.928;10.066;2022-08-21T05:44:02;5.27;;;2.93;;
8895;SDS011;4484;48.928;10.066;2022-08-21T05:46:35;3.93;;;2.97;;
8895;SDS011;4484;48.928;10.066;2022-08-21T05:49:02;6.20;;;3.77;;
8895;SDS011;4484;48.928;10.066;2022-08-21T05:51:30;5.23;;;3.60;;
8895;SDS011;4484;48.928;10.066;2022-08-21T05:53:57;4.67;;;3.33;;
8895;SDS011;4484;48.928;10.066;2022-08-21T05:56:24;5.30;;;3.50;;
8895;SDS011;4484;48.928;10.066;2022-08-21T05:58:51;6.03;;;3.47;;
8895;SDS011;4484;48.928;10.066;2022-08-21T06:01:18;4.97;;;3.83;;
8895;SDS011;4484;48.928;10.066;2022-08-21T06:03:45;7.70;;;4.53;;
8895;SDS011;4484;48.928;10.066;2022-08-21T06:06:12;9.07;;;4.70;;
8895;SDS011;4484;48.928;10.066;2022-08-21T06:08:38;8.10;;;4.57;;
8895;SDS011;4484;48.928;10.066;2022-08-21T06:11:06;8.10;;;4.53;;
8895;SDS011;4484;48.928;10.066;2022-08-21T06:13:34;11.23;;;5.33;;
8895;SDS011;4484;48.928;10.066;2022-08-21T06:16:10;10.30;;;5.43;;
8895;SDS011;4484;48.928;10.066;2022-08-21T06:18:41;7.57;;;3.83;;
8895;SDS011;4484;48.928;10.066;2022-08-21T06:21:10;4.33;;;3.20;;
8895;SDS011;4484;48.928;10.066;2022-08-21T06:23:37;3.83;;;3.00;;
8895;SDS011;4484;48.928;10.066;2022-08-21T06:26:06;4.07;;;2.77;;
8895;SDS011;4484;48.928;10.066;2022-08-21T06:28:33;3.13;;;2.83;;
8895;SDS011;4484;48.928;10.066;2022-08-21T06:31:01;4.23;;;2.90;;
8895;SDS011;4484;48.928;10.066;2022-08-21T06:33:43;3.47;;;2.70;;
8895;SDS011;4484;48.928;10.066;2022-08-21T06:36:10;5.90;;;2.70;;
8895;SDS011;4484;48.928;10.066;2022-08-21T06:38:37;3.40;;;2.73;;
8895;SDS011;4484;48.928;10.066;2022-08-21T06:41:05;4.97;;;2.50;;
8895;SDS011;4484;48.928;10.066;2022-08-21T06:43:35;3.03;;;2.23;;
8895;SDS011;4484;48.928;10.066;2022-08-21T06:46:05;2.30;;;2.10;;
8895;SDS011;4484;48.928;10.066;2022-08-21T06:48:33;2.57;;;2.20;;
8895;SDS011;4484;48.928;10.066;2022-08-21T06:51:00;2.83;;;2.07;;
8895;SDS011;4484;48.928;10.066;2022-08-21T06:53:27;2.20;;;2.00;;
8895;SDS011;4484;48.928;10.066;2022-08-21T06:55:54;2.53;;;1.87;;
8895;SDS011;4484;48.928;10.066;2022-08-21T06:58:21;4.97;;;2.20;;
8895;SDS011;4484;48.928;10.066;2022-08-21T07:00:50;1.83;;;1.73;;
8895;SDS011;4484;48.928;10.066;2022-08-21T07:05:46;2.63;;;1.90;;
8895;SDS011;4484;48.928;10.066;2022-08-21T07:08:13;2.30;;;1.70;;
8895;SDS011;4484;48.928;10.066;2022-08-21T07:10:40;2.20;;;1.90;;
8895;SDS011;4484;48.928;10.066;2022-08-21T07:13:07;2.63;;;1.80;;
8895;SDS011;4484;48.928;10.066;2022-08-21T07:15:34;4.27;;;2.10;;
8895;SDS011;4484;48.928;10.066;2022-08-21T07:18:00;2.30;;;2.10;;
8895;SDS011;4484;48.928;10.066;2022-08-21T07:20:28;4.50;;;1.90;;
8895;SDS011;4484;48.928;10.066;2022-08-21T07:22:58;3.53;;;1.90;;
8895;SDS011;4484;48.928;10.066;2022-08-21T07:25:29;4.00;;;2.23;;
8895;SDS011;4484;48.928;10.066;2022-08-21T07:27:57;2.23;;;2.03;;
8895;SDS011;4484;48.928;10.066;2022-08-21T07:30:24;2.17;;;1.80;;
8895;SDS011;4484;48.928;10.066;2022-08-21T07:32:51;3.70;;;2.23;;
8895;SDS011;4484;48.928;10.066;2022-08-21T07:35:20;2.78;;;2.00;;
8895;SDS011;4484;48.928;10.066;2022-08-21T07:37:49;2.20;;;2.00;;
8895;SDS011;4484;48.928;10.066;2022-08-21T07:40:16;4.07;;;2.42;;
8895;SDS011;4484;48.928;10.066;2022-08-21T07:42:44;5.07;;;2.53;;
8895;SDS011;4484;48.928;10.066;2022-08-21T07:45:15;3.15;;;1.92;;
8895;SDS011;4484;48.928;10.066;2022-08-21T07:47:42;5.82;;;2.50;;
8895;SDS011;4484;48.928;10.066;2022-08-21T07:50:10;3.95;;;2.42;;
8895;SDS011;4484;48.928;10.066;2022-08-21T07:52:39;7.28;;;2.80;;
8895;SDS011;4484;48.928;10.066;2022-08-21T07:55:10;3.05;;;2.28;;
8895;SDS011;4484;48.928;10.066;2022-08-21T07:57:39;4.88;;;2.85;;
8895;SDS011;4484;48.928;10.066;2022-08-21T08:00:13;3.60;;;2.42;;
8895;SDS011;4484;48.928;10.066;2022-08-21T08:02:44;3.95;;;2.70;;
8895;SDS011;4484;48.928;10.066;2022-08-21T08:05:16;5.32;;;2.88;;
8895;SDS011;4484;48.928;10.066;2022-08-21T08:08:24;3.28;;;2.92;;
8895;SDS011;4484;48.928;10.066;2022-08-21T08:10:51;3.33;;;2.50;;
8895;SDS011;4484;48.928;10.066;2022-08-21T08:13:20;4.72;;;2.88;;
8895;SDS011;4484;48.928;10.066;2022-08-21T08:15:48;3.40;;;2.63;;
8895;SDS011;4484;48.928;10.066;2022-08-21T08:18:15;3.20;;;2.55;;
8895;SDS011;4484;48.928;10.066;2022-08-21T08:20:42;3.28;;;2.60;;
8895;SDS011;4484;48.928;10.066;2022-08-21T08:23:10;3.47;;;2.70;;
8895;SDS011;4484;48.928;10.066;2022-08-21T08:25:38;4.43;;;2.45;;
8895;SDS011;4484;48.928;10.066;2022-08-21T08:28:06;2.50;;;2.17;;
8895;SDS011;4484;48.928;10.066;2022-08-21T08:30:43;3.35;;;2.63;;
8895;SDS011;4484;48.928;10.066;2022-08-21T08:33:11;4.90;;;2.65;;
8895;SDS011;4484;48.928;10.066;2022-08-21T08:35:38;4.95;;;2.60;;
8895;SDS011;4484;48.928;10.066;2022-08-21T08:38:07;4.22;;;2.65;;
8895;SDS011;4484;48.928;10.066;2022-08-21T08:43:37;4.90;;;3.40;;
8895;SDS011;4484;48.928;10.066;2022-08-21T08:46:06;3.55;;;2.90;;
8895;SDS011;4484;48.928;10.066;2022-08-21T08:48:51;4.00;;;3.00;;
8895;SDS011;4484;48.928;10.066;2022-08-21T08:51:39;6.50;;;2.95;;
8895;SDS011;4484;48.928;10.066;2022-08-21T08:54:15;4.18;;;2.72;;
8895;SDS011;4484;48.928;10.066;2022-08-21T08:56:47;3.30;;;2.75;;
8895;SDS011;4484;48.928;10.066;2022-08-21T08:59:22;4.22;;;2.88;;
8895;SDS011;4484;48.928;10.066;2022-08-21T09:01:55;6.68;;;3.30;;
8895;SDS011;4484;48.928;10.066;2022-08-21T09:04:23;4.45;;;3.00;;
8895;SDS011;4484;48.928;10.066;2022-08-21T09:09:34;3.50;;;2.40;;
8895;SDS011;4484;48.928;10.066;2022-08-21T09:15:09;6.30;;;3.17;;
8895;SDS011;4484;48.928;10.066;2022-08-21T09:20:56;10.13;;;3.40;;
8895;SDS011;4484;48.928;10.066;2022-08-21T09:24:11;8.07;;;3.20;;
8895;SDS011;4484;48.928;10.066;2022-08-21T09:29:35;4.00;;;2.60;;
8895;SDS011;4484;48.928;10.066;2022-08-21T09:32:09;7.43;;;3.50;;
8895;SDS011;4484;48.928;10.066;2022-08-21T09:38:00;5.10;;;3.00;;
8895;SDS011;4484;48.928;10.066;2022-08-21T09:40:43;3.90;;;2.65;;
8895;SDS011;4484;48.928;10.066;2022-08-21T09:43:19;4.15;;;2.58;;
8895;SDS011;4484;48.928;10.066;2022-08-21T09:45:49;4.90;;;2.72;;
8895;SDS011;4484;48.928;10.066;2022-08-21T09:48:46;3.85;;;2.83;;
8895;SDS011;4484;48.928;10.066;2022-08-21T09:51:15;8.30;;;2.75;;
8895;SDS011;4484;48.928;10.066;2022-08-21T09:53:48;4.22;;;2.35;;
8895;SDS011;4484;48.928;10.066;2022-08-21T10:01:53;3.65;;;2.25;;
8895;SDS011;4484;48.928;10.066;2022-08-21T10:04:27;4.68;;;2.60;;
8895;SDS011;4484;48.928;10.066;2022-08-21T10:07:09;4.88;;;2.28;;
8895;SDS011;4484;48.928;10.066;2022-08-21T10:09:39;2.70;;;2.13;;
8895;SDS011;4484;48.928;10.066;2022-08-21T10:17:27;4.72;;;2.83;;
8895;SDS011;4484;48.928;10.066;2022-08-21T10:20:17;3.92;;;1.95;;
8895;SDS011;4484;48.928;10.066;2022-08-21T10:25:48;3.78;;;2.50;;
8895;SDS011;4484;48.928;10.066;2022-08-21T10:28:44;6.45;;;2.95;;
8895;SDS011;4484;48.928;10.066;2022-08-21T10:31:42;10.57;;;2.90;;
8895;SDS011;4484;48.928;10.066;2022-08-21T10:36:46;5.53;;;2.88;;
8895;SDS011;4484;48.928;10.066;2022-08-21T10:39:36;4.90;;;2.83;;
8895;SDS011;4484;48.928;10.066;2022-08-21T10:45:08;3.63;;;2.45;;
8895;SDS011;4484;48.928;10.066;2022-08-21T10:47:55;5.05;;;2.47;;
8895;SDS011;4484;48.928;10.066;2022-08-21T10:53:09;4.28;;;2.33;;
8895;SDS011;4484;48.928;10.066;2022-08-21T10:55:59;4.75;;;2.65;;
8895;SDS011;4484;48.928;10.066;2022-08-21T11:01:28;2.65;;;1.98;;
8895;SDS011;4484;48.928;10.066;2022-08-21T11:09:48;3.42;;;2.22;;
8895;SDS011;4484;48.928;10.066;2022-08-21T11:17:43;4.25;;;2.60;;
8895;SDS011;4484;48.928;10.066;2022-08-21T11:20:20;3.58;;;2.45;;
8895;SDS011;4484;48.928;10.066;2022-08-21T11:22:58;4.47;;;2.38;;
8895;SDS011;4484;48.928;10.066;2022-08-21T11:25:34;6.80;;;2.45;;
8895;SDS011;4484;48.928;10.066;2022-08-21T11:28:16;3.65;;;2.17;;
8895;SDS011;4484;48.928;10.066;2022-08-21T11:31:14;4.70;;;2.17;;
8895;SDS011;4484;48.928;10.066;2022-08-21T11:44:53;4.90;;;2.03;;
8895;SDS011;4484;48.928;10.066;2022-08-21T11:50:23;2.95;;;2.10;;
8895;SDS011;4484;48.928;10.066;2022-08-21T11:56:09;3.20;;;2.13;;
8895;SDS011;4484;48.928;10.066;2022-08-21T11:58:50;2.55;;;2.03;;
8895;SDS011;4484;48.928;10.066;2022-08-21T12:01:27;3.38;;;2.00;;
8895;SDS011;4484;48.928;10.066;2022-08-21T12:04:04;4.70;;;2.30;;
8895;SDS011;4484;48.928;10.066;2022-08-21T12:06:39;2.97;;;2.00;;
8895;SDS011;4484;48.928;10.066;2022-08-21T12:11:59;5.85;;;2.17;;
8895;SDS011;4484;48.928;10.066;2022-08-21T12:14:36;5.78;;;2.00;;
8895;SDS011;4484;48.928;10.066;2022-08-21T12:17:05;6.88;;;2.38;;
8895;SDS011;4484;48.928;10.066;2022-08-21T12:22:40;5.15;;;2.50;;
8895;SDS011;4484;48.928;10.066;2022-08-21T12:25:15;3.47;;;1.90;;
8895;SDS011;4484;48.928;10.066;2022-08-21T12:33:37;5.25;;;2.40;;
8895;SDS011;4484;48.928;10.066;2022-08-21T12:36:12;4.90;;;2.47;;
8895;SDS011;4484;48.928;10.066;2022-08-21T12:41:53;2.38;;;1.85;;
8895;SDS011;4484;48.928;10.066;2022-08-21T12:47:49;2.85;;;1.83;;
8895;SDS011;4484;48.928;10.066;2022-08-21T12:50:36;4.07;;;2.00;;
8895;SDS011;4484;48.928;10.066;2022-08-21T12:53:28;4.47;;;1.90;;
8895;SDS011;4484;48.928;10.066;2022-08-21T12:56:10;2.50;;;1.90;;
8895;SDS011;4484;48.928;10.066;2022-08-21T12:58:40;5.93;;;2.13;;
8895;SDS011;4484;48.928;10.066;2022-08-21T13:03:53;4.47;;;1.90;;
8895;SDS011;4484;48.928;10.066;2022-08-21T13:06:32;4.90;;;2.08;;
8895;SDS011;4484;48.928;10.066;2022-08-21T13:14:35;3.30;;;1.95;;
8895;SDS011;4484;48.928;10.066;2022-08-21T13:17:13;25.20;;;3.30;;
8895;SDS011;4484;48.928;10.066;2022-08-21T13:22:28;6.15;;;1.83;;
8895;SDS011;4484;48.928;10.066;2022-08-21T13:25:02;5.05;;;2.35;;
8895;SDS011;4484;48.928;10.066;2022-08-21T13:27:36;4.35;;;2.40;;
8895;SDS011;4484;48.928;10.066;2022-08-21T13:32:42;2.22;;;1.80;;
8895;SDS011;4484;48.928;10.066;2022-08-21T13:35:28;4.93;;;1.65;;
8895;SDS011;4484;48.928;10.066;2022-08-21T13:38:03;7.60;;;2.38;;
8895;SDS011;4484;48.928;10.066;2022-08-21T13:40:32;3.42;;;1.92;;
8895;SDS011;4484;48.928;10.066;2022-08-21T13:43:27;3.72;;;2.15;;
8895;SDS011;4484;48.928;10.066;2022-08-21T13:45:58;2.35;;;1.80;;
8895;SDS011;4484;48.928;10.066;2022-08-21T13:48:38;3.35;;;1.70;;
8895;SDS011;4484;48.928;10.066;2022-08-21T13:51:05;4.63;;;2.35;;
8895;SDS011;4484;48.928;10.066;2022-08-21T13:53:35;6.13;;;2.17;;
8895;SDS011;4484;48.928;10.066;2022-08-21T13:56:27;5.22;;;2.50;;
8895;SDS011;4484;48.928;10.066;2022-08-21T14:02:08;6.80;;;2.42;;
8895;SDS011;4484;48.928;10.066;2022-08-21T14:04:57;3.22;;;2.05;;
8895;SDS011;4484;48.928;10.066;2022-08-21T14:07:27;4.40;;;1.67;;
8895;SDS011;4484;48.928;10.066;2022-08-21T14:10:02;3.40;;;2.10;;
8895;SDS011;4484;48.928;10.066;2022-08-21T14:12:47;4.97;;;2.53;;
8895;SDS011;4484;48.928;10.066;2022-08-21T14:15:26;3.80;;;1.90;;
8895;SDS011;4484;48.928;10.066;2022-08-21T14:21:05;3.50;;;2.20;;
8895;SDS011;4484;48.928;10.066;2022-08-21T14:23:33;2.97;;;1.83;;
8895;SDS011;4484;48.928;10.066;2022-08-21T14:26:01;2.40;;;1.70;;
8895;SDS011;4484;48.928;10.066;2022-08-21T14:28:34;3.00;;;1.77;;
8895;SDS011;4484;48.928;10.066;2022-08-21T14:31:15;3.38;;;2.15;;
8895;SDS011;4484;48.928;10.066;2022-08-21T14:33:46;3.88;;;1.90;;
8895;SDS011;4484;48.928;10.066;2022-08-21T14:36:15;1.83;;;1.63;;
8895;SDS011;4484;48.928;10.066;2022-08-21T14:38:43;5.10;;;2.10;;
8895;SDS011;4484;48.928;10.066;2022-08-21T14:41:18;2.63;;;1.80;;
8895;SDS011;4484;48.928;10.066;2022-08-21T14:43:50;2.95;;;1.85;;
8895;SDS011;4484;48.928;10.066;2022-08-21T14:46:33;4.30;;;2.00;;
8895;SDS011;4484;48.928;10.066;2022-08-21T14:49:15;3.05;;;1.80;;
8895;SDS011;4484;48.928;10.066;2022-08-21T14:51:42;2.85;;;2.05;;
8895;SDS011;4484;48.928;10.066;2022-08-21T14:54:20;2.22;;;1.95;;
8895;SDS011;4484;48.928;10.066;2022-08-21T14:56:57;2.58;;;2.00;;
8895;SDS011;4484;48.928;10.066;2022-08-21T14:59:26;3.00;;;1.80;;
8895;SDS011;4484;48.928;10.066;2022-08-21T15:01:54;2.95;;;2.08;;
8895;SDS011;4484;48.928;10.066;2022-08-21T15:04:23;2.40;;;1.58;;
8895;SDS011;4484;48.928;10.066;2022-08-21T15:06:54;4.82;;;2.15;;
8895;SDS011;4484;48.928;10.066;2022-08-21T15:09:22;2.50;;;1.85;;
8895;SDS011;4484;48.928;10.066;2022-08-21T15:11:51;3.75;;;2.03;;
8895;SDS011;4484;48.928;10.066;2022-08-21T15:14:22;3.20;;;1.95;;
8895;SDS011;4484;48.928;10.066;2022-08-21T15:19:25;2.55;;;1.90;;
8895;SDS011;4484;48.928;10.066;2022-08-21T15:22:04;2.97;;;1.92;;
8895;SDS011;4484;48.928;10.066;2022-08-21T15:24:41;3.50;;;1.95;;
8895;SDS011;4484;48.928;10.066;2022-08-21T15:27:13;3.88;;;1.90;;
8895;SDS011;4484;48.928;10.066;2022-08-21T15:29:43;3.85;;;1.83;;
8895;SDS011;4484;48.928;10.066;2022-08-21T15:32:22;2.25;;;1.85;;
8895;SDS011;4484;48.928;10.066;2022-08-21T15:34:53;2.75;;;1.85;;
8895;SDS011;4484;48.928;10.066;2022-08-21T15:37:23;5.15;;;1.55;;
8895;SDS011;4484;48.928;10.066;2022-08-21T15:39:52;2.85;;;1.98;;
8895;SDS011;4484;48.928;10.066;2022-08-21T15:42:23;7.32;;;2.40;;
8895;SDS011;4484;48.928;10.066;2022-08-21T15:44:54;2.72;;;1.88;;
8895;SDS011;4484;48.928;10.066;2022-08-21T15:47:33;2.70;;;2.03;;
8895;SDS011;4484;48.928;10.066;2022-08-21T15:50:04;4.22;;;2.53;;
8895;SDS011;4484;48.928;10.066;2022-08-21T15:52:34;2.92;;;2.38;;
8895;SDS011;4484;48.928;10.066;2022-08-21T15:55:03;2.15;;;1.60;;
8895;SDS011;4484;48.928;10.066;2022-08-21T15:57:31;3.20;;;1.73;;
8895;SDS011;4484;48.928;10.066;2022-08-21T16:00:00;3.10;;;1.92;;
8895;SDS011;4484;48.928;10.066;2022-08-21T16:02:42;2.72;;;1.98;;
8895;SDS011;4484;48.928;10.066;2022-08-21T16:05:16;2.75;;;1.80;;
8895;SDS011;4484;48.928;10.066;2022-08-21T16:07:45;2.63;;;1.85;;
8895;SDS011;4484;48.928;10.066;2022-08-21T16:10:13;2.95;;;1.70;;
8895;SDS011;4484;48.928;10.066;2022-08-21T16:12:44;2.83;;;1.83;;
8895;SDS011;4484;48.928;10.066;2022-08-21T16:15:16;3.15;;;2.00;;
8895;SDS011;4484;48.928;10.066;2022-08-21T16:17:46;3.55;;;1.95;;
8895;SDS011;4484;48.928;10.066;2022-08-21T16:20:16;2.75;;;2.00;;
8895;SDS011;4484;48.928;10.066;2022-08-21T16:22:50;2.35;;;1.85;;
8895;SDS011;4484;48.928;10.066;2022-08-21T16:25:18;2.90;;;1.90;;
8895;SDS011;4484;48.928;10.066;2022-08-21T16:27:48;2.83;;;1.73;;
8895;SDS011;4484;48.928;10.066;2022-08-21T16:30:24;2.17;;;1.73;;
8895;SDS011;4484;48.928;10.066;2022-08-21T16:32:52;3.72;;;1.98;;
8895;SDS011;4484;48.928;10.066;2022-08-21T16:35:21;3.38;;;1.90;;
8895;SDS011;4484;48.928;10.066;2022-08-21T16:37:48;2.95;;;1.70;;
8895;SDS011;4484;48.928;10.066;2022-08-21T16:40:18;2.60;;;1.95;;
8895;SDS011;4484;48.928;10.066;2022-08-21T16:42:48;3.30;;;1.73;;
8895;SDS011;4484;48.928;10.066;2022-08-21T16:45:16;2.47;;;1.40;;
8895;SDS011;4484;48.928;10.066;2022-08-21T16:47:46;3.10;;;1.75;;
8895;SDS011;4484;48.928;10.066;2022-08-21T16:50:14;1.67;;;1.58;;
8895;SDS011;4484;48.928;10.066;2022-08-21T16:52:44;1.85;;;1.63;;
8895;SDS011;4484;48.928;10.066;2022-08-21T16:55:10;3.28;;;1.85;;
8895;SDS011;4484;48.928;10.066;2022-08-21T16:57:37;4.07;;;2.10;;
8895;SDS011;4484;48.928;10.066;2022-08-21T17:00:05;4.47;;;1.80;;
8895;SDS011;4484;48.928;10.066;2022-08-21T17:02:44;2.45;;;1.88;;
8895;SDS011;4484;48.928;10.066;2022-08-21T17:05:14;3.83;;;1.75;;
8895;SDS011;4484;48.928;10.066;2022-08-21T17:07:42;2.28;;;1.50;;
8895;SDS011;4484;48.928;10.066;2022-08-21T17:10:10;2.63;;;1.63;;
8895;SDS011;4484;48.928;10.066;2022-08-21T17:12:39;1.88;;;1.55;;
8895;SDS011;4484;48.928;10.066;2022-08-21T17:15:10;2.17;;;1.52;;
8895;SDS011;4484;48.928;10.066;2022-08-21T17:17:47;2.55;;;1.70;;
8895;SDS011;4484;48.928;10.066;2022-08-21T17:20:15;2.15;;;1.50;;